Time;durP1;ratioP1;P1;durP2;ratioP2;P2;SDS_P1;SDS_P2;PMS_P1;PMS_P2;Temp;Humidity;BMP_temperature;BMP_pressure;BME280_temperature;BME280_humidity;BME280_pressure;Samples;Min_cycle;Max_cycle;Signal;HPM_P1;HPM_P2
2023/05/25 00:02:17;;;;;;;6.72;2.72;;;10.70;99.90;;;;;;4967691;28;20403;-46
2023/05/25 00:04:47;;;;;;;5.47;3.05;;;10.80;99.90;;;;;;4956056;28;20031;-46
2023/05/25 00:07:13;;;;;;;7.43;3.17;;;10.70;99.90;;;;;;4970887;28;20057;-48
2023/05/25 00:09:40;;;;;;;13.27;3.53;;;10.70;99.90;;;;;;4975228;28;20058;-53
2023/05/25 00:12:06;;;;;;;9.70;3.35;;;10.70;99.90;;;;;;4975065;28;20031;-47
2023/05/25 00:14:31;;;;;;;7.70;3.58;;;10.70;99.90;;;;;;4975169;28;20550;-49
2023/05/25 00:16:57;;;;;;;6.28;2.95;;;10.70;99.90;;;;;;4975141;28;20019;-51
2023/05/25 00:19:23;;;;;;;9.48;3.60;;;10.70;99.90;;;;;;4974786;28;20390;-53
2023/05/25 00:21:49;;;;;;;11.60;3.80;;;10.70;99.90;;;;;;4974696;28;20105;-48
2023/05/25 00:24:15;;;;;;;6.10;2.80;;;10.70;99.90;;;;;;4968569;28;20034;-51
2023/05/25 00:26:41;;;;;;;10.05;3.85;;;10.70;99.90;;;;;;4973352;28;20015;-52
2023/05/25 00:29:06;;;;;;;8.73;3.47;;;10.70;99.90;;;;;;4981333;28;20109;-50
2023/05/25 00:31:34;;;;;;;11.43;3.55;;;10.70;99.90;;;;;;4994280;28;20030;-50
2023/05/25 00:33:59;;;;;;;7.03;3.35;;;10.70;99.90;;;;;;4993423;28;20541;-50
2023/05/25 00:36:25;;;;;;;8.32;3.92;;;10.70;99.90;;;;;;4994199;28;20034;-46
2023/05/25 00:38:50;;;;;;;6.05;3.63;;;10.60;99.90;;;;;;4992501;28;20112;-52
2023/05/25 00:41:17;;;;;;;6.45;3.47;;;10.60;99.90;;;;;;4994271;28;20022;-45
2023/05/25 00:43:46;;;;;;;13.20;3.88;;;10.60;99.90;;;;;;4992535;28;20032;-52
2023/05/25 00:46:14;;;;;;;9.73;4.00;;;10.60;99.90;;;;;;4992465;28;20053;-48
2023/05/25 00:48:40;;;;;;;6.18;3.47;;;10.60;99.90;;;;;;5005869;23;20290;-48
2023/05/25 00:51:06;;;;;;;11.85;4.05;;;10.60;99.90;;;;;;4992933;28;20081;-51
2023/05/25 00:53:32;;;;;;;8.90;4.00;;;10.60;99.90;;;;;;4993830;28;20026;-49
2023/05/25 00:56:12;;;;;;;11.85;4.13;;;10.60;99.90;;;;;;4994177;28;20026;-54
2023/05/25 00:58:41;;;;;;;9.90;4.28;;;10.60;99.90;;;;;;4994019;28;20022;-51
2023/05/25 01:01:10;;;;;;;7.90;4.07;;;10.50;99.90;;;;;;4993991;28;20085;-48
2023/05/25 01:03:38;;;;;;;11.90;4.72;;;10.50;99.90;;;;;;4993542;28;20018;-51
2023/05/25 01:06:08;;;;;;;7.72;4.10;;;10.50;99.90;;;;;;4994027;28;20026;-50
2023/05/25 01:08:36;;;;;;;10.30;4.85;;;10.40;99.90;;;;;;4993887;28;20398;-49
2023/05/25 01:11:02;;;;;;;11.98;4.30;;;10.40;99.90;;;;;;4992051;28;20463;-51
2023/05/25 01:13:28;;;;;;;12.32;5.68;;;10.40;99.90;;;;;;4992133;28;20089;-48
2023/05/25 01:15:55;;;;;;;10.38;4.38;;;10.30;99.90;;;;;;4993519;28;20402;-49
2023/05/25 01:18:21;;;;;;;13.30;4.55;;;10.40;99.90;;;;;;4993396;28;20029;-52
2023/05/25 01:20:52;;;;;;;12.02;4.70;;;10.40;99.90;;;;;;4992032;28;20386;-51
2023/05/25 01:23:23;;;;;;;7.00;3.90;;;10.40;99.90;;;;;;4991877;28;20023;-50
2023/05/25 01:25:52;;;;;;;13.57;5.05;;;10.30;99.90;;;;;;4993391;28;20057;-48
2023/05/25 01:28:27;;;;;;;12.20;4.30;;;10.30;99.90;;;;;;4992118;28;20053;-51
2023/05/25 01:30:55;;;;;;;12.18;4.70;;;10.30;99.90;;;;;;4993066;28;20104;-48
2023/05/25 01:33:21;;;;;;;10.48;5.60;;;10.30;99.90;;;;;;4993246;28;20487;-49
2023/05/25 01:35:47;;;;;;;13.05;5.65;;;10.30;99.90;;;;;;4993216;28;20110;-49
2023/05/25 01:38:13;;;;;;;9.70;5.13;;;10.20;99.90;;;;;;4993184;28;20033;-50
2023/05/25 01:40:39;;;;;;;13.50;4.68;;;10.20;99.90;;;;;;4993005;28;20026;-49
2023/05/25 01:43:04;;;;;;;11.55;5.03;;;10.20;99.90;;;;;;4992689;28;20018;-49
2023/05/25 01:45:31;;;;;;;21.52;5.80;;;10.20;99.90;;;;;;4993086;28;20115;-52
2023/05/25 01:48:25;;;;;;;19.98;5.43;;;10.20;99.90;;;;;;4993100;28;20030;-48
2023/05/25 01:51:22;;;;;;;20.15;4.95;;;10.10;99.90;;;;;;4992762;28;20371;-51
2023/05/25 01:53:52;;;;;;;13.05;5.32;;;10.00;99.90;;;;;;4940352;28;20126;-48
2023/05/25 01:56:20;;;;;;;12.32;5.88;;;10.00;99.90;;;;;;4992878;28;20027;-50
2023/05/25 01:58:47;;;;;;;19.48;7.50;;;9.90;99.90;;;;;;4992653;28;20050;-49
2023/05/25 02:01:15;;;;;;;11.55;5.25;;;9.90;99.90;;;;;;4992940;28;20052;-52
2023/05/25 02:03:43;;;;;;;14.45;5.03;;;9.90;99.90;;;;;;4992551;28;20022;-49
2023/05/25 02:06:09;;;;;;;12.63;5.60;;;9.90;99.90;;;;;;4992472;28;20023;-51
2023/05/25 02:08:34;;;;;;;12.80;5.00;;;9.80;99.90;;;;;;4992780;28;20077;-51
2023/05/25 02:11:00;;;;;;;12.75;5.40;;;9.80;99.90;;;;;;4992304;28;20026;-51
2023/05/25 02:13:26;;;;;;;11.63;5.05;;;9.80;99.90;;;;;;4991437;28;20037;-54
2023/05/25 02:15:52;;;;;;;9.93;5.38;;;9.80;99.90;;;;;;4992401;28;20037;-53
2023/05/25 02:18:17;;;;;;;10.10;5.10;;;9.70;99.90;;;;;;4992472;28;20161;-53
2023/05/25 02:20:43;;;;;;;16.83;5.63;;;9.80;99.90;;;;;;4992059;28;20105;-49
2023/05/25 02:23:09;;;;;;;12.90;5.07;;;9.70;99.90;;;;;;4992034;28;20054;-50
2023/05/25 02:25:35;;;;;;;16.98;6.75;;;9.70;99.90;;;;;;4989546;28;20027;-51
2023/05/25 02:28:00;;;;;;;9.82;6.10;;;9.70;99.90;;;;;;4988729;28;20405;-47
2023/05/25 02:30:26;;;;;;;12.68;5.30;;;9.60;99.90;;;;;;4988627;28;20521;-48
2023/05/25 02:32:52;;;;;;;15.05;5.43;;;9.60;99.90;;;;;;4988743;28;20026;-51
2023/05/25 02:35:18;;;;;;;9.85;5.20;;;9.50;99.90;;;;;;4988670;28;20124;-49
2023/05/25 02:37:44;;;;;;;18.42;6.05;;;9.50;99.90;;;;;;4988458;28;20030;-52
2023/05/25 02:40:11;;;;;;;21.67;7.68;;;9.60;99.90;;;;;;4988597;28;20022;-50
2023/05/25 02:42:36;;;;;;;12.90;5.60;;;9.60;99.90;;;;;;4988191;28;20045;-49
2023/05/25 02:45:05;;;;;;;14.73;5.57;;;9.50;99.90;;;;;;4988656;28;20042;-51
2023/05/25 02:47:30;;;;;;;13.13;5.60;;;9.50;99.90;;;;;;4989110;28;20038;-53
2023/05/25 02:49:56;;;;;;;14.73;6.07;;;9.50;99.90;;;;;;4988183;28;20407;-50
2023/05/25 02:52:21;;;;;;;13.27;6.88;;;9.50;99.90;;;;;;4988306;28;20042;-50
2023/05/25 02:54:47;;;;;;;13.65;6.22;;;9.40;99.90;;;;;;4988425;28;20042;-53
2023/05/25 02:57:12;;;;;;;21.05;6.32;;;9.40;99.90;;;;;;4986982;28;20023;-48
2023/05/25 02:59:38;;;;;;;16.15;6.57;;;9.30;99.90;;;;;;4986888;28;20026;-51
2023/05/25 03:02:03;;;;;;;10.80;6.00;;;9.30;99.90;;;;;;4987814;28;20038;-53
2023/05/25 03:04:33;;;;;;;17.13;6.00;;;9.30;99.90;;;;;;4988720;28;20383;-49
2023/05/25 03:06:58;;;;;;;12.98;5.70;;;9.30;99.90;;;;;;4988395;28;20057;-47
2023/05/25 03:09:24;;;;;;;16.80;6.40;;;9.20;99.90;;;;;;4988150;28;20031;-53
2023/05/25 03:11:50;;;;;;;12.90;6.35;;;9.20;99.90;;;;;;4990375;28;20093;-48
2023/05/25 03:14:15;;;;;;;16.35;6.53;;;9.20;99.90;;;;;;4991709;28;20029;-51
2023/05/25 03:16:41;;;;;;;14.13;6.47;;;9.10;99.90;;;;;;4992195;28;20113;-48
2023/05/25 03:19:07;;;;;;;17.60;7.10;;;9.10;99.90;;;;;;4991633;28;20030;-53
2023/05/25 03:21:32;;;;;;;18.67;6.97;;;9.00;99.90;;;;;;4992891;28;20018;-49
2023/05/25 03:23:58;;;;;;;21.63;7.25;;;9.00;99.90;;;;;;4993213;28;20395;-51
2023/05/25 03:26:24;;;;;;;13.45;6.75;;;9.00;99.90;;;;;;4995491;28;20022;-50
2023/05/25 03:28:50;;;;;;;12.63;5.95;;;9.00;99.90;;;;;;4995222;28;20027;-52
2023/05/25 03:31:16;;;;;;;13.02;6.00;;;9.00;99.90;;;;;;4995429;28;20022;-51
2023/05/25 03:33:42;;;;;;;16.90;6.53;;;9.00;99.90;;;;;;4993905;28;20030;-51
2023/05/25 03:36:08;;;;;;;16.63;7.43;;;9.00;99.90;;;;;;4995223;28;20034;-49
2023/05/25 03:38:35;;;;;;;18.25;7.22;;;9.00;99.90;;;;;;4994018;28;20027;-51
2023/05/25 03:41:01;;;;;;;13.85;6.78;;;8.90;99.90;;;;;;4993637;28;20076;-50
2023/05/25 03:43:27;;;;;;;16.85;7.57;;;9.00;99.90;;;;;;4993801;28;20113;-52
2023/05/25 03:45:52;;;;;;;15.27;6.28;;;8.90;99.90;;;;;;4995189;28;20034;-49
2023/05/25 03:48:18;;;;;;;14.27;7.10;;;8.90;99.90;;;;;;4993780;28;20042;-48
2023/05/25 03:50:43;;;;;;;14.45;7.00;;;8.90;99.90;;;;;;4994771;28;20033;-48
2023/05/25 03:53:09;;;;;;;14.57;6.70;;;9.00;99.90;;;;;;4994201;28;20034;-52
2023/05/25 03:55:34;;;;;;;17.20;6.97;;;9.00;99.90;;;;;;4994883;28;20039;-51
2023/05/25 03:58:00;;;;;;;15.85;7.55;;;9.00;99.90;;;;;;4995416;28;20422;-49
2023/05/25 04:00:25;;;;;;;16.30;7.18;;;9.00;99.90;;;;;;4994721;28;20482;-47
2023/05/25 04:02:51;;;;;;;14.75;7.13;;;9.10;99.90;;;;;;4994643;28;20031;-51
2023/05/25 04:05:16;;;;;;;20.05;7.88;;;9.10;99.90;;;;;;4994708;28;20040;-49
2023/05/25 04:07:42;;;;;;;15.88;6.43;;;9.10;99.90;;;;;;4995050;28;20033;-48
2023/05/25 04:10:07;;;;;;;20.77;7.10;;;9.10;99.90;;;;;;4994848;28;20035;-47
2023/05/25 04:12:33;;;;;;;16.52;7.93;;;9.10;99.90;;;;;;4994682;28;20033;-47
2023/05/25 04:14:59;;;;;;;16.15;7.47;;;9.10;99.90;;;;;;4994895;28;20030;-47
2023/05/25 04:17:24;;;;;;;9.43;6.15;;;9.20;99.90;;;;;;4995721;28;20555;-48
2023/05/25 04:19:51;;;;;;;19.05;9.18;;;9.10;99.90;;;;;;4995226;28;20033;-49
2023/05/25 04:22:17;;;;;;;18.52;8.25;;;9.10;99.90;;;;;;4992171;28;20475;-48
2023/05/25 04:24:43;;;;;;;25.55;7.53;;;9.20;99.90;;;;;;4993277;28;20493;-48
2023/05/25 04:27:09;;;;;;;19.58;6.47;;;9.20;99.90;;;;;;4994638;28;20474;-48
2023/05/25 04:29:36;;;;;;;16.83;7.30;;;9.30;99.90;;;;;;4994208;28;20089;-48
2023/05/25 04:32:01;;;;;;;16.88;8.00;;;9.30;99.90;;;;;;4994056;28;20455;-48
2023/05/25 04:34:28;;;;;;;18.77;7.13;;;9.40;99.90;;;;;;4992854;28;20137;-49
2023/05/25 04:36:55;;;;;;;17.42;7.10;;;9.50;99.90;;;;;;4993876;28;20049;-48
2023/05/25 04:39:20;;;;;;;18.50;6.95;;;9.60;99.90;;;;;;4993877;28;20011;-48
2023/05/25 04:41:47;;;;;;;16.48;7.20;;;9.70;99.90;;;;;;4993677;28;20399;-49
2023/05/25 04:44:12;;;;;;;14.82;6.50;;;9.80;99.90;;;;;;4994773;28;20361;-50
2023/05/25 04:46:39;;;;;;;16.40;6.30;;;10.00;99.90;;;;;;4993858;28;20034;-52
2023/05/25 04:49:07;;;;;;;13.00;6.38;;;10.40;99.90;;;;;;4993344;28;20027;-51
2023/05/25 04:51:32;;;;;;;12.90;6.35;;;11.10;99.90;;;;;;4993830;28;20054;-47
2023/05/25 04:53:58;;;;;;;13.68;5.78;;;11.80;99.90;;;;;;4992176;28;20510;-48
2023/05/25 04:56:25;;;;;;;14.07;7.47;;;12.60;99.90;;;;;;4993551;28;20061;-47
2023/05/25 04:58:51;;;;;;;12.30;5.43;;;13.20;99.90;;;;;;4992275;28;20109;-49
2023/05/25 05:01:19;;;;;;;11.15;5.00;;;14.00;99.90;;;;;;4992390;28;20061;-48
2023/05/25 05:03:44;;;;;;;12.02;5.85;;;15.00;99.90;;;;;;4993117;28;20022;-54
2023/05/25 05:06:10;;;;;;;9.40;4.50;;;15.40;99.90;;;;;;4993704;28;20142;-48
2023/05/25 05:08:35;;;;;;;15.80;5.07;;;15.70;99.90;;;;;;4993631;28;20089;-50
2023/05/25 05:11:01;;;;;;;11.75;4.85;;;15.70;99.90;;;;;;4993351;28;20038;-48
2023/05/25 05:13:26;;;;;;;11.10;4.93;;;15.70;99.90;;;;;;4993326;28;20030;-49
2023/05/25 05:15:52;;;;;;;11.95;4.57;;;15.70;99.90;;;;;;4993985;28;20398;-48
2023/05/25 05:18:18;;;;;;;11.05;5.15;;;16.00;99.90;;;;;;4993476;28;20074;-48
2023/05/25 05:20:44;;;;;;;15.00;5.18;;;16.50;99.90;;;;;;4992207;28;20498;-52
2023/05/25 05:23:10;;;;;;;11.68;4.85;;;16.40;99.90;;;;;;4993295;28;20394;-49
2023/05/25 05:25:36;;;;;;;9.35;4.05;;;16.40;99.90;;;;;;4993491;28;20030;-48
2023/05/25 05:28:02;;;;;;;10.88;4.68;;;17.00;99.90;;;;;;4993360;28;20041;-49
2023/05/25 05:30:28;;;;;;;13.07;5.18;;;17.40;99.90;;;;;;4991768;28;20030;-49
2023/05/25 05:32:53;;;;;;;11.70;4.60;;;17.50;99.90;;;;;;4992899;28;20066;-48
2023/05/25 05:35:19;;;;;;;10.07;4.97;;;17.20;99.90;;;;;;4991313;28;20081;-48
2023/05/25 05:37:45;;;;;;;13.48;4.53;;;17.20;99.90;;;;;;4993204;28;20026;-52
2023/05/25 05:40:11;;;;;;;11.50;4.70;;;17.10;99.90;;;;;;4992633;28;20018;-49
2023/05/25 05:42:37;;;;;;;12.50;4.65;;;17.10;99.90;;;;;;4992717;28;20094;-56
2023/05/25 05:45:03;;;;;;;10.40;3.97;;;17.70;99.90;;;;;;4993068;28;20486;-49
2023/05/25 05:47:28;;;;;;;12.52;4.45;;;18.00;99.70;;;;;;4992628;28;20031;-51
2023/05/25 05:49:54;;;;;;;9.90;4.05;;;18.10;99.00;;;;;;4992706;28;20030;-49
2023/05/25 05:52:19;;;;;;;10.93;4.10;;;17.80;99.70;;;;;;4992440;28;20026;-49
2023/05/25 05:54:45;;;;;;;9.20;3.63;;;17.80;99.90;;;;;;4992559;28;20496;-47
2023/05/25 05:57:10;;;;;;;8.63;4.32;;;17.80;99.30;;;;;;4992627;28;20030;-53
2023/05/25 05:59:36;;;;;;;9.35;4.18;;;17.40;99.10;;;;;;4992320;28;20080;-52
2023/05/25 06:02:01;;;;;;;7.97;3.75;;;17.30;99.30;;;;;;4992501;28;20092;-52
2023/05/25 06:04:27;;;;;;;7.72;3.63;;;17.10;99.60;;;;;;4991550;28;20069;-46
2023/05/25 06:06:54;;;;;;;9.73;3.45;;;17.70;99.80;;;;;;4992566;28;20126;-49
2023/05/25 06:09:19;;;;;;;9.13;4.05;;;17.60;99.10;;;;;;4992300;28;20018;-49
2023/05/25 06:11:46;;;;;;;9.02;3.70;;;17.60;98.80;;;;;;4992283;28;20094;-51
2023/05/25 06:14:11;;;;;;;10.00;4.03;;;17.90;98.50;;;;;;4992419;28;20030;-47
2023/05/25 06:16:37;;;;;;;10.02;3.80;;;17.80;98.10;;;;;;4992398;28;20145;-49
2023/05/25 06:19:02;;;;;;;11.73;4.20;;;17.90;97.90;;;;;;4992073;28;20392;-46
2023/05/25 06:21:28;;;;;;;12.25;3.35;;;18.50;97.60;;;;;;4991306;28;20026;-50
2023/05/25 06:23:56;;;;;;;8.70;3.65;;;18.90;97.00;;;;;;4992013;28;20029;-46
2023/05/25 06:26:22;;;;;;;7.85;3.13;;;19.10;96.60;;;;;;4992228;28;20061;-49
2023/05/25 06:28:48;;;;;;;11.40;4.22;;;19.30;96.30;;;;;;4992146;28;20033;-49
2023/05/25 06:31:14;;;;;;;9.20;3.53;;;19.10;95.70;;;;;;4992314;28;20429;-48
2023/05/25 06:33:40;;;;;;;9.27;3.58;;;19.00;95.60;;;;;;4991804;28;20034;-49
2023/05/25 06:36:06;;;;;;;7.35;3.55;;;18.80;95.80;;;;;;4990899;28;20040;-48
2023/05/25 06:38:32;;;;;;;8.93;2.80;;;18.80;95.80;;;;;;4992004;28;20030;-46
2023/05/25 06:41:02;;;;;;;8.10;2.85;;;18.90;95.50;;;;;;4991778;28;20033;-49
2023/05/25 06:43:27;;;;;;;9.90;2.90;;;19.20;95.00;;;;;;4991782;28;20442;-48
2023/05/25 06:45:53;;;;;;;16.17;3.85;;;18.90;95.00;;;;;;4991230;28;20057;-47
2023/05/25 06:48:18;;;;;;;9.55;3.28;;;19.20;94.70;;;;;;4992532;28;20566;-49
2023/05/25 06:50:45;;;;;;;9.05;3.80;;;19.60;94.60;;;;;;4991712;28;20031;-49
2023/05/25 06:53:11;;;;;;;10.50;3.70;;;20.00;93.80;;;;;;4991814;28;20026;-49
2023/05/25 06:55:36;;;;;;;7.30;3.13;;;19.90;93.60;;;;;;4992059;28;20068;-45
2023/05/25 06:58:02;;;;;;;8.32;3.35;;;19.90;94.50;;;;;;4991991;28;20050;-46
2023/05/25 07:00:27;;;;;;;11.35;3.80;;;19.80;93.70;;;;;;4991513;28;20018;-47
2023/05/25 07:02:53;;;;;;;10.50;3.40;;;20.10;93.30;;;;;;4990266;28;20022;-49
2023/05/25 07:05:18;;;;;;;7.28;2.95;;;19.80;93.40;;;;;;4991739;28;20030;-48
2023/05/25 07:07:44;;;;;;;7.90;3.35;;;20.00;93.10;;;;;;4990753;28;20027;-50
2023/05/25 07:10:10;;;;;;;11.77;4.35;;;20.10;92.90;;;;;;4991306;28;20034;-49
2023/05/25 07:12:35;;;;;;;7.75;3.92;;;20.30;93.40;;;;;;4991586;28;20395;-48
2023/05/25 07:15:01;;;;;;;6.75;3.17;;;20.50;93.90;;;;;;4991675;28;20027;-51
2023/05/25 07:17:27;;;;;;;13.32;4.28;;;21.10;92.70;;;;;;4991788;28;20105;-49
2023/05/25 07:19:53;;;;;;;6.38;3.88;;;21.20;92.60;;;;;;4991339;28;20025;-48
2023/05/25 07:22:18;;;;;;;7.03;3.53;;;20.60;93.10;;;;;;4990233;28;20026;-51
2023/05/25 07:24:45;;;;;;;13.57;3.58;;;20.50;92.90;;;;;;4991618;28;20483;-47
2023/05/25 07:27:12;;;;;;;9.77;3.72;;;20.80;92.50;;;;;;4991651;28;20089;-51
2023/05/25 07:29:38;;;;;;;11.77;4.20;;;21.00;92.40;;;;;;4991260;28;20037;-46
2023/05/25 07:32:04;;;;;;;9.90;3.80;;;20.50;92.30;;;;;;4991434;28;20117;-50
2023/05/25 07:34:29;;;;;;;8.02;3.83;;;19.70;93.30;;;;;;4991394;28;20529;-49
2023/05/25 07:36:55;;;;;;;6.85;2.97;;;20.40;93.30;;;;;;4990126;28;20027;-46
2023/05/25 07:39:20;;;;;;;9.02;3.55;;;20.90;92.00;;;;;;4990178;28;20098;-46
2023/05/25 07:41:46;;;;;;;9.45;3.53;;;21.20;91.80;;;;;;4991195;28;20470;-48
2023/05/25 07:44:11;;;;;;;11.00;3.78;;;21.40;90.80;;;;;;4991457;28;20033;-49
2023/05/25 07:46:37;;;;;;;6.85;3.20;;;21.60;91.00;;;;;;4991516;28;20037;-46
2023/05/25 07:49:03;;;;;;;7.53;3.10;;;22.30;90.40;;;;;;4990981;28;20097;-50
2023/05/25 07:51:31;;;;;;;9.85;4.57;;;21.80;90.30;;;;;;4991512;28;20117;-48
2023/05/25 07:53:57;;;;;;;10.73;3.72;;;21.20;90.80;;;;;;4991090;28;20018;-48
2023/05/25 07:56:23;;;;;;;8.07;3.55;;;21.30;91.00;;;;;;4991361;28;20109;-46
2023/05/25 07:58:49;;;;;;;7.90;3.35;;;21.30;90.80;;;;;;4994242;28;20070;-46
2023/05/25 08:01:15;;;;;;;8.35;3.30;;;21.50;90.50;;;;;;4995059;28;20516;-47
2023/05/25 08:03:41;;;;;;;5.63;2.92;;;22.00;90.70;;;;;;4994496;28;20030;-48
2023/05/25 08:06:06;;;;;;;11.65;3.55;;;22.30;87.90;;;;;;4994855;28;20038;-48
2023/05/25 08:08:32;;;;;;;12.85;4.03;;;22.00;88.00;;;;;;4994817;28;20026;-48
2023/05/25 08:10:57;;;;;;;9.70;3.72;;;21.80;88.80;;;;;;4994466;28;20041;-46
2023/05/25 08:13:23;;;;;;;9.73;3.78;;;21.40;90.10;;;;;;4994740;28;20398;-48
2023/05/25 08:15:48;;;;;;;12.18;4.53;;;20.60;91.30;;;;;;4994362;28;20038;-50
2023/05/25 08:18:14;;;;;;;13.65;3.83;;;20.70;90.70;;;;;;4994599;28;20027;-46
2023/05/25 08:20:40;;;;;;;6.95;3.40;;;20.90;91.30;;;;;;4993211;28;20022;-46
2023/05/25 08:23:06;;;;;;;9.02;3.40;;;20.60;90.50;;;;;;4994340;28;20026;-46
2023/05/25 08:25:31;;;;;;;12.35;4.53;;;20.50;90.90;;;;;;4994577;28;20030;-48
2023/05/25 08:27:57;;;;;;;10.10;4.03;;;20.40;91.00;;;;;;4994423;28;20037;-49
2023/05/25 08:30:23;;;;;;;8.82;4.10;;;20.20;91.20;;;;;;4992717;28;20081;-48
2023/05/25 08:32:48;;;;;;;8.48;3.25;;;20.50;90.90;;;;;;4992227;28;20533;-45
2023/05/25 08:35:14;;;;;;;12.07;3.70;;;20.10;90.70;;;;;;4997603;28;20026;-49
2023/05/25 08:37:39;;;;;;;12.27;3.22;;;20.20;91.50;;;;;;5009886;28;20029;-48
2023/05/25 08:40:07;;;;;;;10.18;3.72;;;19.90;91.00;;;;;;5003152;28;20395;-47
2023/05/25 08:42:33;;;;;;;7.55;3.65;;;19.50;91.50;;;;;;4993651;28;20371;-46
2023/05/25 08:44:58;;;;;;;7.07;3.22;;;19.20;91.60;;;;;;4992792;28;20080;-47
2023/05/25 08:47:30;;;;;;;11.70;3.33;;;19.10;91.60;;;;;;4993789;28;20038;-49
2023/05/25 08:49:56;;;;;;;8.10;3.60;;;19.30;91.40;;;;;;4993723;28;20030;-50
2023/05/25 08:52:23;;;;;;;12.07;3.78;;;19.40;92.00;;;;;;4990919;28;20038;-50
2023/05/25 08:54:52;;;;;;;14.93;4.22;;;19.50;92.00;;;;;;4987342;28;20483;-48
2023/05/25 08:57:42;;;;;;;11.07;3.55;;;19.40;92.00;;;;;;4994008;28;20026;-48
2023/05/25 09:00:10;;;;;;;11.80;3.92;;;19.30;92.50;;;;;;4992956;28;20422;-50
2023/05/25 09:02:53;;;;;;;8.70;3.53;;;19.30;92.00;;;;;;4994283;28;20378;-48
2023/05/25 09:05:19;;;;;;;8.75;3.63;;;19.00;92.00;;;;;;4994515;28;20394;-49
2023/05/25 09:07:46;;;;;;;15.15;3.88;;;18.80;93.40;;;;;;4993724;28;20041;-47
2023/05/25 09:10:11;;;;;;;12.00;3.80;;;18.60;93.10;;;;;;4992519;28;20394;-52
2023/05/25 09:12:37;;;;;;;8.80;3.00;;;18.90;92.80;;;;;;4993413;28;20022;-49
2023/05/25 09:15:04;;;;;;;14.18;3.70;;;19.00;92.80;;;;;;4993470;28;20028;-50
2023/05/25 09:17:30;;;;;;;7.20;3.70;;;18.80;92.00;;;;;;4992793;28;20089;-47
2023/05/25 09:19:56;;;;;;;8.43;3.10;;;18.70;92.50;;;;;;4993233;28;20026;-52
2023/05/25 09:22:21;;;;;;;8.48;4.05;;;18.50;92.10;;;;;;4993069;28;20125;-48
2023/05/25 09:24:47;;;;;;;7.55;3.55;;;18.50;92.00;;;;;;4993077;28;20060;-53
2023/05/25 09:27:19;;;;;;;6.70;3.20;;;18.70;92.60;;;;;;4993054;28;20401;-54
2023/05/25 09:29:51;;;;;;;9.55;3.20;;;18.80;92.10;;;;;;4992755;28;20077;-47
2023/05/25 09:32:17;;;;;;;7.72;3.67;;;18.80;92.90;;;;;;4992832;28;20563;-51
2023/05/25 09:34:44;;;;;;;11.38;3.90;;;18.80;93.40;;;;;;4993905;28;20045;-49
2023/05/25 09:37:12;;;;;;;7.03;3.25;;;18.80;93.00;;;;;;4993169;28;20026;-51
2023/05/25 09:39:40;;;;;;;5.80;3.28;;;19.10;93.10;;;;;;4992743;28;20019;-52
2023/05/25 09:42:05;;;;;;;8.60;3.47;;;19.10;92.10;;;;;;4993044;28;20735;-47
2023/05/25 09:44:31;;;;;;;4.88;2.88;;;19.00;91.80;;;;;;4993102;28;20022;-48
2023/05/25 09:46:56;;;;;;;10.50;2.60;;;18.50;92.10;;;;;;4992422;28;20067;-48
2023/05/25 09:49:22;;;;;;;6.50;3.45;;;18.60;92.30;;;;;;4992345;28;20034;-48
2023/05/25 09:51:48;;;;;;;9.77;3.60;;;18.60;92.60;;;;;;4992653;28;20022;-47
2023/05/25 09:54:14;;;;;;;6.32;3.58;;;18.70;93.10;;;;;;4992949;28;20050;-48
2023/05/25 09:56:40;;;;;;;6.72;3.38;;;18.90;92.40;;;;;;4992261;28;20497;-47
2023/05/25 09:59:06;;;;;;;6.05;3.22;;;18.80;92.20;;;;;;4992425;28;20627;-47
2023/05/25 10:01:33;;;;;;;8.23;2.97;;;18.80;92.40;;;;;;4992617;28;20023;-51
2023/05/25 10:04:00;;;;;;;6.47;3.03;;;18.80;91.20;;;;;;4992138;28;20027;-52
2023/05/25 10:06:26;;;;;;;4.82;3.15;;;18.50;90.00;;;;;;4992617;28;20097;-48
2023/05/25 10:08:55;;;;;;;4.75;3.50;;;18.30;91.20;;;;;;4992293;28;20443;-49
2023/05/25 10:11:25;;;;;;;7.50;3.60;;;18.40;92.30;;;;;;4992096;28;20545;-49
2023/05/25 10:13:53;;;;;;;5.50;2.97;;;18.50;92.40;;;;;;4989435;28;20023;-50
2023/05/25 10:16:26;;;;;;;11.57;5.47;;;18.50;91.90;;;;;;4992065;28;20022;-50
2023/05/25 10:18:54;;;;;;;7.57;3.38;;;18.60;92.20;;;;;;4990994;28;20018;-52
2023/05/25 10:21:21;;;;;;;10.35;3.00;;;18.50;92.50;;;;;;4991008;28;20022;-47
2023/05/25 10:23:51;;;;;;;8.15;3.67;;;18.40;92.20;;;;;;4991247;28;20026;-51
2023/05/25 10:26:23;;;;;;;7.93;3.83;;;18.40;92.90;;;;;;4992353;28;20050;-47
2023/05/25 10:28:50;;;;;;;8.07;3.67;;;18.10;93.50;;;;;;4991490;28;20026;-47
2023/05/25 10:31:17;;;;;;;7.55;2.90;;;18.30;93.50;;;;;;4991867;28;20026;-51
2023/05/25 10:33:44;;;;;;;6.13;3.50;;;18.50;94.10;;;;;;4989631;28;20033;-50
2023/05/25 10:36:12;;;;;;;8.27;3.42;;;18.30;93.00;;;;;;4991166;28;20458;-51
2023/05/25 10:38:42;;;;;;;10.05;4.05;;;18.20;93.60;;;;;;4991651;28;20101;-48
2023/05/25 10:41:09;;;;;;;6.57;3.90;;;18.30;93.90;;;;;;4991932;28;20500;-49
2023/05/25 10:43:35;;;;;;;6.10;3.45;;;18.50;93.30;;;;;;4991327;28;20097;-47
2023/05/25 10:46:01;;;;;;;9.85;4.45;;;18.70;93.30;;;;;;4991411;28;20030;-48
2023/05/25 10:48:47;;;;;;;4.00;2.65;;;18.80;92.30;;;;;;4991513;28;20139;-49
2023/05/25 10:51:13;;;;;;;6.53;3.63;;;18.70;92.60;;;;;;4992061;28;20030;-49
2023/05/25 10:53:44;;;;;;;5.93;3.50;;;18.50;93.30;;;;;;4991288;28;20018;-47
2023/05/25 10:56:11;;;;;;;8.93;3.67;;;18.50;93.30;;;;;;4983825;28;20031;-49
2023/05/25 10:58:41;;;;;;;13.32;3.55;;;18.50;92.90;;;;;;4991825;28;20022;-47
2023/05/25 11:01:10;;;;;;;5.65;3.28;;;18.50;92.80;;;;;;4991282;28;20428;-52
2023/05/25 11:03:54;;;;;;;7.43;3.42;;;18.40;93.20;;;;;;4991388;28;20471;-46
2023/05/25 11:06:39;;;;;;;10.07;3.57;;;18.40;93.30;;;;;;4991708;28;20497;-45
2023/05/25 11:09:05;;;;;;;6.75;3.05;;;18.30;92.90;;;;;;4991316;28;20027;-46
2023/05/25 11:11:44;;;;;;;6.05;3.20;;;18.40;93.10;;;;;;4991650;28;20033;-50
2023/05/25 11:14:30;;;;;;;5.05;3.30;;;18.60;93.40;;;;;;4991342;28;20022;-46
2023/05/25 11:17:14;;;;;;;9.57;3.47;;;18.70;92.60;;;;;;4991342;28;20105;-51
2023/05/25 11:19:57;;;;;;;8.45;4.10;;;18.70;93.70;;;;;;4991355;28;20080;-49
2023/05/25 11:22:31;;;;;;;5.13;3.42;;;18.90;93.60;;;;;;5002978;28;20030;-47
2023/05/25 11:24:58;;;;;;;7.97;5.30;;;18.80;93.90;;;;;;5011167;28;20033;-48
2023/05/25 11:27:28;;;;;;;11.90;5.93;;;18.80;93.30;;;;;;4995983;28;20116;-50
2023/05/25 11:29:57;;;;;;;7.20;3.53;;;18.80;93.50;;;;;;4990820;28;20030;-49
2023/05/25 11:32:24;;;;;;;8.15;3.30;;;18.90;94.00;;;;;;4992557;28;20057;-45
2023/05/25 11:34:52;;;;;;;11.45;3.90;;;18.90;93.50;;;;;;4995009;28;20434;-46
2023/05/25 11:37:20;;;;;;;12.45;3.10;;;19.00;93.50;;;;;;4995477;28;20097;-48
2023/05/25 11:39:47;;;;;;;5.10;3.10;;;19.00;92.80;;;;;;4994703;28;20105;-46
2023/05/25 11:42:14;;;;;;;5.53;3.17;;;18.90;92.00;;;;;;4992490;28;20028;-47
2023/05/25 11:44:40;;;;;;;7.90;3.10;;;18.90;92.10;;;;;;4990611;28;20028;-46
2023/05/25 11:47:07;;;;;;;5.10;3.20;;;19.00;91.90;;;;;;4994681;28;20383;-48
2023/05/25 11:49:34;;;;;;;5.85;3.53;;;19.00;92.60;;;;;;4994348;28;20023;-49
2023/05/25 11:52:05;;;;;;;5.03;2.92;;;19.10;93.10;;;;;;4994437;28;20486;-48
2023/05/25 11:54:32;;;;;;;4.57;3.13;;;19.10;92.20;;;;;;4993867;28;20451;-47
2023/05/25 11:56:58;;;;;;;5.85;3.17;;;19.20;92.20;;;;;;4992911;28;20018;-46
2023/05/25 11:59:27;;;;;;;5.03;2.58;;;19.20;92.40;;;;;;4993664;28;20448;-48
2023/05/25 12:02:00;;;;;;;7.07;3.22;;;19.30;92.20;;;;;;4993104;28;20076;-46
2023/05/25 12:04:26;;;;;;;6.72;3.80;;;19.30;92.50;;;;;;4993265;28;20023;-49
2023/05/25 12:06:52;;;;;;;7.90;4.28;;;19.30;92.60;;;;;;4993217;28;20022;-49
2023/05/25 12:09:21;;;;;;;6.72;3.67;;;19.50;92.90;;;;;;4994230;28;20528;-48
2023/05/25 12:11:47;;;;;;;4.10;3.33;;;19.40;92.70;;;;;;4993658;28;20037;-48
2023/05/25 12:14:13;;;;;;;6.40;3.70;;;19.30;92.30;;;;;;4993965;28;20042;-47
2023/05/25 12:16:39;;;;;;;6.50;4.05;;;19.20;92.70;;;;;;4994482;28;20030;-46
2023/05/25 12:19:12;;;;;;;5.40;3.75;;;19.00;92.30;;;;;;4993910;28;20498;-45
2023/05/25 12:21:39;;;;;;;6.75;3.22;;;19.20;93.10;;;;;;4994323;28;20034;-47
2023/05/25 12:24:06;;;;;;;7.13;3.55;;;19.20;93.30;;;;;;4993131;28;20490;-46
2023/05/25 12:26:32;;;;;;;5.55;3.28;;;19.30;93.10;;;;;;4994917;28;20502;-46
2023/05/25 12:29:09;;;;;;;26.02;15.05;;;19.40;93.20;;;;;;4994037;28;20033;-45
2023/05/25 12:31:37;;;;;;;6.97;3.80;;;19.60;93.10;;;;;;4989399;28;20046;-46
2023/05/25 12:34:05;;;;;;;5.97;3.38;;;19.60;92.70;;;;;;4988274;28;20402;-46
2023/05/25 12:36:43;;;;;;;5.50;3.00;;;19.50;92.10;;;;;;4993276;28;20589;-46
2023/05/25 12:39:10;;;;;;;4.95;2.97;;;19.50;92.30;;;;;;4994234;28;20027;-49
2023/05/25 12:42:02;;;;;;;6.13;3.35;;;19.50;93.10;;;;;;4991190;28;20360;-48
2023/05/25 12:44:31;;;;;;;7.03;3.20;;;19.60;92.90;;;;;;4985278;28;20540;-47